sensor_id;sensor_type;location;lat;lon;timestamp;pressure;altitude;pressure_sealevel;temperature;humidity
61761;BME280;47664;51.660;-0.100;2023-04-27T00:02:08;101216.12;;;7.57;51.82
61761;BME280;47664;51.660;-0.100;2023-04-27T00:04:36;101217.17;;;7.45;51.51
61761;BME280;47664;51.660;-0.100;2023-04-27T00:07:03;101218.57;;;7.84;51.33
61761;BME280;47664;51.660;-0.100;2023-04-27T00:09:31;101219.78;;;8.15;50.76
61761;BME280;47664;51.660;-0.100;2023-04-27T00:11:58;101218.92;;;7.76;51.41
61761;BME280;47664;51.660;-0.100;2023-04-27T00:14:26;101218.57;;;7.70;51.15
61761;BME280;47664;51.660;-0.100;2023-04-27T00:16:53;101216.28;;;7.83;50.90
61761;BME280;47664;51.660;-0.100;2023-04-27T00:19:21;101216.92;;;8.26;50.60
61761;BME280;47664;51.660;-0.100;2023-04-27T00:21:48;101215.54;;;7.78;50.50
61761;BME280;47664;51.660;-0.100;2023-04-27T00:24:15;101211.04;;;8.26;50.51
61761;BME280;47664;51.660;-0.100;2023-04-27T00:26:42;101209.02;;;7.48;50.20
61761;BME280;47664;51.660;-0.100;2023-04-27T00:29:09;101207.33;;;7.71;50.53
61761;BME280;47664;51.660;-0.100;2023-04-27T00:31:36;101203.78;;;7.34;50.85
61761;BME280;47664;51.660;-0.100;2023-04-27T00:34:04;101200.71;;;7.84;50.84
61761;BME280;47664;51.660;-0.100;2023-04-27T00:36:32;101199.45;;;7.66;51.50
61761;BME280;47664;51.660;-0.100;2023-04-27T00:38:59;101194.83;;;7.77;51.52
61761;BME280;47664;51.660;-0.100;2023-04-27T00:41:26;101193.37;;;8.30;51.14
61761;BME280;47664;51.660;-0.100;2023-04-27T00:43:53;101191.34;;;7.86;51.48
61761;BME280;47664;51.660;-0.100;2023-04-27T00:46:20;101192.00;;;7.77;51.15
61761;BME280;47664;51.660;-0.100;2023-04-27T00:48:47;101191.37;;;7.78;51.49
61761;BME280;47664;51.660;-0.100;2023-04-27T00:51:14;101191.81;;;7.67;51.37
61761;BME280;47664;51.660;-0.100;2023-04-27T00:53:40;101190.44;;;7.01;51.69
61761;BME280;47664;51.660;-0.100;2023-04-27T00:56:07;101186.32;;;8.01;51.65
61761;BME280;47664;51.660;-0.100;2023-04-27T00:58:35;101179.35;;;7.20;51.82
61761;BME280;47664;51.660;-0.100;2023-04-27T01:01:03;101178.56;;;7.94;51.86
61761;BME280;47664;51.660;-0.100;2023-04-27T01:03:31;101178.66;;;8.17;51.39
61761;BME280;47664;51.660;-0.100;2023-04-27T01:05:58;101176.48;;;8.08;51.62
61761;BME280;47664;51.660;-0.100;2023-04-27T01:08:25;101172.15;;;7.86;51.59
61761;BME280;47664;51.660;-0.100;2023-04-27T01:10:52;101167.28;;;7.80;51.75
61761;BME280;47664;51.660;-0.100;2023-04-27T01:13:20;101159.71;;;7.53;52.38
61761;BME280;47664;51.660;-0.100;2023-04-27T01:15:47;101156.68;;;7.18;52.23
61761;BME280;47664;51.660;-0.100;2023-04-27T01:18:14;101150.09;;;7.29;52.97
61761;BME280;47664;51.660;-0.100;2023-04-27T01:20:41;101142.88;;;6.66;52.86
61761;BME280;47664;51.660;-0.100;2023-04-27T01:23:12;101143.49;;;7.20;53.18
61761;BME280;47664;51.660;-0.100;2023-04-27T01:25:40;101144.91;;;6.05;54.21
61761;BME280;47664;51.660;-0.100;2023-04-27T01:28:07;101136.85;;;7.34;53.58
61761;BME280;47664;51.660;-0.100;2023-04-27T01:30:35;101137.08;;;6.61;53.99
61761;BME280;47664;51.660;-0.100;2023-04-27T01:33:02;101133.31;;;7.11;53.85
61761;BME280;47664;51.660;-0.100;2023-04-27T01:35:30;101129.59;;;7.14;54.11
61761;BME280;47664;51.660;-0.100;2023-04-27T01:37:57;101130.23;;;7.17;54.03
61761;BME280;47664;51.660;-0.100;2023-04-27T01:40:25;101131.18;;;6.84;54.68
61761;BME280;47664;51.660;-0.100;2023-04-27T01:42:52;101130.13;;;6.88;54.62
61761;BME280;47664;51.660;-0.100;2023-04-27T01:45:18;101126.34;;;7.00;54.36
61761;BME280;47664;51.660;-0.100;2023-04-27T01:47:46;101126.35;;;6.62;54.35
61761;BME280;47664;51.660;-0.100;2023-04-27T01:50:13;101127.08;;;6.89;54.77
61761;BME280;47664;51.660;-0.100;2023-04-27T01:52:41;101128.42;;;6.42;54.41
61761;BME280;47664;51.660;-0.100;2023-04-27T01:55:08;101130.69;;;7.42;53.97
61761;BME280;47664;51.660;-0.100;2023-04-27T01:57:36;101130.71;;;6.82;53.47
61761;BME280;47664;51.660;-0.100;2023-04-27T02:00:03;101133.66;;;7.37;53.49
61761;BME280;47664;51.660;-0.100;2023-04-27T02:02:31;101131.86;;;7.41;52.98
61761;BME280;47664;51.660;-0.100;2023-04-27T02:04:58;101135.81;;;7.23;53.31
61761;BME280;47664;51.660;-0.100;2023-04-27T02:07:25;101140.22;;;7.95;52.79
61761;BME280;47664;51.660;-0.100;2023-04-27T02:09:52;101143.53;;;7.49;52.50
61761;BME280;47664;51.660;-0.100;2023-04-27T02:12:19;101141.79;;;7.34;53.18
61761;BME280;47664;51.660;-0.100;2023-04-27T02:14:46;101142.99;;;7.39;52.48
61761;BME280;47664;51.660;-0.100;2023-04-27T02:17:13;101145.09;;;7.45;52.61
61761;BME280;47664;51.660;-0.100;2023-04-27T02:19:41;101146.77;;;6.67;52.83
61761;BME280;47664;51.660;-0.100;2023-04-27T02:22:08;101148.41;;;7.44;52.96
61761;BME280;47664;51.660;-0.100;2023-04-27T02:24:35;101149.78;;;7.30;52.61
61761;BME280;47664;51.660;-0.100;2023-04-27T02:27:03;101151.61;;;7.40;52.95
61761;BME280;47664;51.660;-0.100;2023-04-27T02:29:31;101154.20;;;7.49;52.93
61761;BME280;47664;51.660;-0.100;2023-04-27T02:31:57;101154.01;;;7.84;52.62
61761;BME280;47664;51.660;-0.100;2023-04-27T02:34:24;101156.44;;;7.51;52.69
61761;BME280;47664;51.660;-0.100;2023-04-27T02:36:52;101154.31;;;7.65;52.41
61761;BME280;47664;51.660;-0.100;2023-04-27T02:39:19;101151.72;;;7.77;52.79
61761;BME280;47664;51.660;-0.100;2023-04-27T02:41:47;101153.30;;;6.65;52.57
61761;BME280;47664;51.660;-0.100;2023-04-27T02:44:14;101152.56;;;7.77;52.13
61761;BME280;47664;51.660;-0.100;2023-04-27T02:46:41;101154.45;;;7.22;52.06
61761;BME280;47664;51.660;-0.100;2023-04-27T02:49:08;101154.06;;;7.80;52.41
61761;BME280;47664;51.660;-0.100;2023-04-27T02:51:36;101149.38;;;7.27;53.07
61761;BME280;47664;51.660;-0.100;2023-04-27T02:54:03;101153.03;;;7.49;53.17
61761;BME280;47664;51.660;-0.100;2023-04-27T02:56:31;101151.28;;;7.31;53.13
61761;BME280;47664;51.660;-0.100;2023-04-27T02:58:59;101149.14;;;7.58;52.83
61761;BME280;47664;51.660;-0.100;2023-04-27T03:01:25;101147.85;;;7.46;52.87
61761;BME280;47664;51.660;-0.100;2023-04-27T03:03:53;101144.84;;;7.33;52.74
61761;BME280;47664;51.660;-0.100;2023-04-27T03:06:20;101142.10;;;7.40;52.47
61761;BME280;47664;51.660;-0.100;2023-04-27T03:08:47;101141.95;;;7.66;52.51
61761;BME280;47664;51.660;-0.100;2023-04-27T03:11:14;101142.54;;;7.63;52.34
61761;BME280;47664;51.660;-0.100;2023-04-27T03:13:41;101140.23;;;6.66;52.28
61761;BME280;47664;51.660;-0.100;2023-04-27T03:16:09;101141.97;;;7.70;52.01
61761;BME280;47664;51.660;-0.100;2023-04-27T03:18:37;101139.31;;;7.06;52.25
61761;BME280;47664;51.660;-0.100;2023-04-27T03:21:06;101140.61;;;7.22;52.22
61761;BME280;47664;51.660;-0.100;2023-04-27T03:23:35;101139.70;;;6.94;52.58
61761;BME280;47664;51.660;-0.100;2023-04-27T03:26:05;101139.69;;;7.02;52.78
61761;BME280;47664;51.660;-0.100;2023-04-27T03:28:32;101142.94;;;6.80;52.89
61761;BME280;47664;51.660;-0.100;2023-04-27T03:31:00;101144.11;;;7.10;53.35
61761;BME280;47664;51.660;-0.100;2023-04-27T03:33:30;101142.03;;;7.18;53.39
61761;BME280;47664;51.660;-0.100;2023-04-27T03:35:58;101137.46;;;6.93;53.75
61761;BME280;47664;51.660;-0.100;2023-04-27T03:38:26;101139.31;;;7.05;53.80
61761;BME280;47664;51.660;-0.100;2023-04-27T03:40:54;101139.60;;;6.32;54.61
61761;BME280;47664;51.660;-0.100;2023-04-27T03:43:21;101137.47;;;6.50;54.91
61761;BME280;47664;51.660;-0.100;2023-04-27T03:45:49;101135.23;;;6.34;55.15
61761;BME280;47664;51.660;-0.100;2023-04-27T03:48:17;101134.85;;;6.45;55.49
61761;BME280;47664;51.660;-0.100;2023-04-27T03:50:44;101134.13;;;5.41;56.49
61761;BME280;47664;51.660;-0.100;2023-04-27T03:53:12;101131.83;;;5.79;56.37
61761;BME280;47664;51.660;-0.100;2023-04-27T03:55:41;101129.85;;;5.35;56.59
61761;BME280;47664;51.660;-0.100;2023-04-27T03:58:09;101124.95;;;6.01;56.67
61761;BME280;47664;51.660;-0.100;2023-04-27T04:00:38;101120.61;;;5.41;57.16
61761;BME280;47664;51.660;-0.100;2023-04-27T04:03:06;101123.50;;;5.98;57.59
61761;BME280;47664;51.660;-0.100;2023-04-27T04:05:33;101121.92;;;5.65;57.07
61761;BME280;47664;51.660;-0.100;2023-04-27T04:08:00;101118.06;;;5.67;56.86
61761;BME280;47664;51.660;-0.100;2023-04-27T04:10:28;101117.11;;;6.50;56.23
61761;BME280;47664;51.660;-0.100;2023-04-27T04:12:56;101116.87;;;6.23;56.12
61761;BME280;47664;51.660;-0.100;2023-04-27T04:15:23;101113.96;;;6.42;56.45
61761;BME280;47664;51.660;-0.100;2023-04-27T04:17:49;101111.55;;;5.89;56.46
61761;BME280;47664;51.660;-0.100;2023-04-27T04:20:16;101109.35;;;6.29;56.55
61761;BME280;47664;51.660;-0.100;2023-04-27T04:22:43;101111.26;;;5.80;56.06
61761;BME280;47664;51.660;-0.100;2023-04-27T04:25:10;101111.30;;;6.80;55.47
61761;BME280;47664;51.660;-0.100;2023-04-27T04:27:38;101109.99;;;5.62;55.48
61761;BME280;47664;51.660;-0.100;2023-04-27T04:30:05;101106.38;;;6.49;55.08
61761;BME280;47664;51.660;-0.100;2023-04-27T04:32:34;101103.02;;;6.53;54.94
61761;BME280;47664;51.660;-0.100;2023-04-27T04:35:01;101104.53;;;6.09;55.67
61761;BME280;47664;51.660;-0.100;2023-04-27T04:37:28;101101.09;;;6.19;55.98
61761;BME280;47664;51.660;-0.100;2023-04-27T04:39:56;101098.93;;;5.60;57.35
61761;BME280;47664;51.660;-0.100;2023-04-27T04:42:23;101094.07;;;6.12;56.78
61761;BME280;47664;51.660;-0.100;2023-04-27T04:44:50;101093.74;;;5.54;56.92
61761;BME280;47664;51.660;-0.100;2023-04-27T04:47:17;101093.86;;;6.35;56.37
61761;BME280;47664;51.660;-0.100;2023-04-27T04:49:45;101097.37;;;5.55;56.20
61761;BME280;47664;51.660;-0.100;2023-04-27T04:52:12;101099.81;;;6.29;56.22
61761;BME280;47664;51.660;-0.100;2023-04-27T04:54:39;101099.30;;;5.39;55.86
61761;BME280;47664;51.660;-0.100;2023-04-27T04:57:07;101094.25;;;6.10;55.92
61761;BME280;47664;51.660;-0.100;2023-04-27T04:59:34;101090.96;;;6.08;55.87
61761;BME280;47664;51.660;-0.100;2023-04-27T05:02:01;101089.64;;;5.84;56.42
61761;BME280;47664;51.660;-0.100;2023-04-27T05:04:28;101087.57;;;6.02;56.17
61761;BME280;47664;51.660;-0.100;2023-04-27T05:06:55;101090.53;;;5.91;56.25
61761;BME280;47664;51.660;-0.100;2023-04-27T05:09:22;101091.61;;;6.18;56.04
61761;BME280;47664;51.660;-0.100;2023-04-27T05:11:50;101092.48;;;6.29;55.71
61761;BME280;47664;51.660;-0.100;2023-04-27T05:14:17;101093.27;;;5.90;56.15
61761;BME280;47664;51.660;-0.100;2023-04-27T05:16:44;101089.61;;;5.62;55.72
61761;BME280;47664;51.660;-0.100;2023-04-27T05:19:11;101084.18;;;6.13;56.22
61761;BME280;47664;51.660;-0.100;2023-04-27T05:21:39;101082.69;;;5.43;56.74
61761;BME280;47664;51.660;-0.100;2023-04-27T05:24:07;101081.51;;;5.91;57.32
61761;BME280;47664;51.660;-0.100;2023-04-27T05:26:34;101084.91;;;5.52;57.63
61761;BME280;47664;51.660;-0.100;2023-04-27T05:29:01;101092.47;;;5.84;57.42
61761;BME280;47664;51.660;-0.100;2023-04-27T05:31:28;101092.26;;;6.32;57.41
61761;BME280;47664;51.660;-0.100;2023-04-27T05:33:56;101093.09;;;5.85;58.35
61761;BME280;47664;51.660;-0.100;2023-04-27T05:36:23;101093.76;;;6.21;58.00
61761;BME280;47664;51.660;-0.100;2023-04-27T05:38:51;101092.93;;;5.93;57.59
61761;BME280;47664;51.660;-0.100;2023-04-27T05:41:18;101099.06;;;6.34;57.72
61761;BME280;47664;51.660;-0.100;2023-04-27T05:43:45;101097.31;;;6.06;56.91
61761;BME280;47664;51.660;-0.100;2023-04-27T05:46:13;101100.28;;;6.38;57.17
61761;BME280;47664;51.660;-0.100;2023-04-27T05:48:40;101100.76;;;5.58;57.68
61761;BME280;47664;51.660;-0.100;2023-04-27T05:51:07;101094.66;;;6.64;56.72
61761;BME280;47664;51.660;-0.100;2023-04-27T05:53:34;101092.30;;;6.13;56.98
61761;BME280;47664;51.660;-0.100;2023-04-27T05:56:02;101091.66;;;6.11;57.21
61761;BME280;47664;51.660;-0.100;2023-04-27T05:58:29;101089.84;;;6.39;56.88
61761;BME280;47664;51.660;-0.100;2023-04-27T06:00:57;101087.81;;;6.24;56.90
61761;BME280;47664;51.660;-0.100;2023-04-27T06:03:24;101091.05;;;6.63;56.57
61761;BME280;47664;51.660;-0.100;2023-04-27T06:05:53;101092.99;;;6.56;56.74
61761;BME280;47664;51.660;-0.100;2023-04-27T06:08:21;101092.96;;;6.46;56.55
61761;BME280;47664;51.660;-0.100;2023-04-27T06:10:50;101100.68;;;6.56;56.31
61761;BME280;47664;51.660;-0.100;2023-04-27T06:13:17;101108.99;;;6.65;56.28
61761;BME280;47664;51.660;-0.100;2023-04-27T06:15:45;101111.24;;;6.18;56.39
61761;BME280;47664;51.660;-0.100;2023-04-27T06:18:13;101108.69;;;6.95;55.95
61761;BME280;47664;51.660;-0.100;2023-04-27T06:20:40;101107.62;;;6.24;55.33
61761;BME280;47664;51.660;-0.100;2023-04-27T06:23:08;101102.80;;;7.65;54.54
61761;BME280;47664;51.660;-0.100;2023-04-27T06:25:35;101098.04;;;6.99;54.75
61761;BME280;47664;51.660;-0.100;2023-04-27T06:28:03;101098.06;;;7.83;54.10
61761;BME280;47664;51.660;-0.100;2023-04-27T06:30:32;101097.27;;;7.45;54.54
61761;BME280;47664;51.660;-0.100;2023-04-27T06:32:59;101096.25;;;7.32;54.84
61761;BME280;47664;51.660;-0.100;2023-04-27T06:35:26;101097.83;;;7.77;54.70
61761;BME280;47664;51.660;-0.100;2023-04-27T06:37:53;101101.94;;;7.46;54.77
61761;BME280;47664;51.660;-0.100;2023-04-27T06:40:21;101101.07;;;7.91;54.47
61761;BME280;47664;51.660;-0.100;2023-04-27T06:42:47;101095.69;;;7.16;54.71
61761;BME280;47664;51.660;-0.100;2023-04-27T06:45:14;101093.54;;;7.54;54.70
61761;BME280;47664;51.660;-0.100;2023-04-27T06:47:42;101087.37;;;6.70;54.79
61761;BME280;47664;51.660;-0.100;2023-04-27T06:50:09;101087.03;;;7.62;54.23
61761;BME280;47664;51.660;-0.100;2023-04-27T06:52:37;101089.15;;;6.46;54.78
61761;BME280;47664;51.660;-0.100;2023-04-27T06:55:04;101088.75;;;7.38;54.46
61761;BME280;47664;51.660;-0.100;2023-04-27T06:57:32;101081.87;;;7.15;55.36
61761;BME280;47664;51.660;-0.100;2023-04-27T06:59:59;101077.58;;;7.12;54.92
61761;BME280;47664;51.660;-0.100;2023-04-27T07:02:26;101076.50;;;7.74;54.17
61761;BME280;47664;51.660;-0.100;2023-04-27T07:04:53;101071.36;;;7.96;53.78
61761;BME280;47664;51.660;-0.100;2023-04-27T07:07:21;101069.31;;;8.29;52.68
61761;BME280;47664;51.660;-0.100;2023-04-27T07:09:48;101072.17;;;7.87;53.41
61761;BME280;47664;51.660;-0.100;2023-04-27T07:12:15;101071.16;;;7.90;53.88
61761;BME280;47664;51.660;-0.100;2023-04-27T07:14:42;101074.33;;;8.15;53.93
61761;BME280;47664;51.660;-0.100;2023-04-27T07:17:09;101078.86;;;7.57;54.31
61761;BME280;47664;51.660;-0.100;2023-04-27T07:19:36;101082.64;;;7.53;54.43
61761;BME280;47664;51.660;-0.100;2023-04-27T07:22:04;101084.78;;;7.64;54.40
61761;BME280;47664;51.660;-0.100;2023-04-27T07:24:31;101086.37;;;8.27;53.51
61761;BME280;47664;51.660;-0.100;2023-04-27T07:26:57;101087.65;;;8.31;53.53
61761;BME280;47664;51.660;-0.100;2023-04-27T07:29:25;101088.38;;;8.40;52.68
61761;BME280;47664;51.660;-0.100;2023-04-27T07:31:52;101086.55;;;8.25;52.00
61761;BME280;47664;51.660;-0.100;2023-04-27T07:34:20;101085.44;;;8.64;51.81
61761;BME280;47664;51.660;-0.100;2023-04-27T07:36:48;101086.94;;;8.16;51.80
61761;BME280;47664;51.660;-0.100;2023-04-27T07:39:15;101083.69;;;8.13;51.63
61761;BME280;47664;51.660;-0.100;2023-04-27T07:41:42;101082.18;;;7.67;52.15
61761;BME280;47664;51.660;-0.100;2023-04-27T07:44:10;101084.41;;;8.61;51.34
61761;BME280;47664;51.660;-0.100;2023-04-27T07:46:37;101082.21;;;7.90;51.27
61761;BME280;47664;51.660;-0.100;2023-04-27T07:49:04;101078.69;;;8.53;51.14
61761;BME280;47664;51.660;-0.100;2023-04-27T07:51:32;101077.97;;;8.28;51.49
61761;BME280;47664;51.660;-0.100;2023-04-27T07:53:59;101079.23;;;8.02;51.27
61761;BME280;47664;51.660;-0.100;2023-04-27T07:56:27;101082.38;;;8.62;50.63
61761;BME280;47664;51.660;-0.100;2023-04-27T07:58:54;101087.18;;;8.48;50.67
61761;BME280;47664;51.660;-0.100;2023-04-27T08:01:21;101084.01;;;8.50;50.90
61761;BME280;47664;51.660;-0.100;2023-04-27T08:03:49;101079.17;;;8.25;50.68
61761;BME280;47664;51.660;-0.100;2023-04-27T08:06:17;101078.11;;;8.90;50.17
61761;BME280;47664;51.660;-0.100;2023-04-27T08:08:45;101073.73;;;8.49;50.43
61761;BME280;47664;51.660;-0.100;2023-04-27T08:11:12;101071.36;;;8.80;49.87
61761;BME280;47664;51.660;-0.100;2023-04-27T08:13:39;101068.33;;;8.24;50.19
61761;BME280;47664;51.660;-0.100;2023-04-27T08:16:07;101063.33;;;8.68;50.48
61761;BME280;47664;51.660;-0.100;2023-04-27T08:18:34;101062.23;;;8.34;50.13
61761;BME280;47664;51.660;-0.100;2023-04-27T08:21:01;101060.36;;;8.39;50.29
61761;BME280;47664;51.660;-0.100;2023-04-27T08:23:28;101066.01;;;8.35;50.59
61761;BME280;47664;51.660;-0.100;2023-04-27T08:25:56;101064.02;;;8.61;50.36
61761;BME280;47664;51.660;-0.100;2023-04-27T08:28:23;101061.50;;;8.61;49.87
61761;BME280;47664;51.660;-0.100;2023-04-27T08:30:51;101064.04;;;8.59;49.61
61761;BME280;47664;51.660;-0.100;2023-04-27T08:33:18;101058.59;;;8.73;48.94
61761;BME280;47664;51.660;-0.100;2023-04-27T08:35:45;101053.77;;;8.49;48.82
61761;BME280;47664;51.660;-0.100;2023-04-27T08:38:13;101045.39;;;9.26;48.57
61761;BME280;47664;51.660;-0.100;2023-04-27T08:40:42;101047.40;;;8.30;49.04
61761;BME280;47664;51.660;-0.100;2023-04-27T08:43:10;101047.28;;;9.14;49.19
61761;BME280;47664;51.660;-0.100;2023-04-27T08:45:38;101054.89;;;8.21;48.98
61761;BME280;47664;51.660;-0.100;2023-04-27T08:48:13;101056.76;;;8.63;49.46
61761;BME280;47664;51.660;-0.100;2023-04-27T08:50:43;101056.22;;;8.29;49.71
61761;BME280;47664;51.660;-0.100;2023-04-27T08:53:16;101055.97;;;8.65;49.19
61761;BME280;47664;51.660;-0.100;2023-04-27T08:55:43;101055.18;;;8.69;48.44
61761;BME280;47664;51.660;-0.100;2023-04-27T08:58:11;101054.44;;;9.47;47.95
61761;BME280;47664;51.660;-0.100;2023-04-27T09:00:40;101053.65;;;9.03;47.01
61761;BME280;47664;51.660;-0.100;2023-04-27T09:03:18;101046.97;;;9.12;47.22
61761;BME280;47664;51.660;-0.100;2023-04-27T09:05:48;101050.58;;;9.16;46.42
61761;BME280;47664;51.660;-0.100;2023-04-27T09:08:15;101047.87;;;9.66;45.60
61761;BME280;47664;51.660;-0.100;2023-04-27T09:10:45;101044.61;;;8.91;45.73
61761;BME280;47664;51.660;-0.100;2023-04-27T09:13:13;101042.83;;;10.09;44.76
61761;BME280;47664;51.660;-0.100;2023-04-27T09:15:42;101030.48;;;8.86;45.42
61761;BME280;47664;51.660;-0.100;2023-04-27T09:18:14;101024.47;;;9.31;46.57
61761;BME280;47664;51.660;-0.100;2023-04-27T09:20:43;101024.35;;;9.15;46.22
61761;BME280;47664;51.660;-0.100;2023-04-27T09:23:10;101028.24;;;9.84;45.96
61761;BME280;47664;51.660;-0.100;2023-04-27T09:25:37;101031.72;;;9.06;44.75
61761;BME280;47664;51.660;-0.100;2023-04-27T09:28:07;101017.10;;;9.51;44.78
61761;BME280;47664;51.660;-0.100;2023-04-27T09:30:35;101013.58;;;9.11;44.99
61761;BME280;47664;51.660;-0.100;2023-04-27T09:33:02;101006.03;;;9.93;43.70
61761;BME280;47664;51.660;-0.100;2023-04-27T09:35:31;101001.88;;;10.10;43.34
61761;BME280;47664;51.660;-0.100;2023-04-27T09:38:00;100992.84;;;9.74;43.49
61761;BME280;47664;51.660;-0.100;2023-04-27T09:40:28;100996.80;;;9.44;43.46
61761;BME280;47664;51.660;-0.100;2023-04-27T09:42:56;100990.83;;;9.35;43.61
61761;BME280;47664;51.660;-0.100;2023-04-27T09:45:24;100993.94;;;9.65;42.85
61761;BME280;47664;51.660;-0.100;2023-04-27T09:47:52;100998.96;;;9.75;42.61
61761;BME280;47664;51.660;-0.100;2023-04-27T09:50:19;100999.89;;;9.70;43.58
61761;BME280;47664;51.660;-0.100;2023-04-27T09:52:47;100997.43;;;9.22;42.73
61761;BME280;47664;51.660;-0.100;2023-04-27T09:55:17;100991.96;;;10.07;42.96
61761;BME280;47664;51.660;-0.100;2023-04-27T09:57:52;100992.39;;;9.94;43.33
61761;BME280;47664;51.660;-0.100;2023-04-27T10:00:34;100990.31;;;10.84;41.84
61761;BME280;47664;51.660;-0.100;2023-04-27T10:03:15;100989.20;;;10.27;41.84
61761;BME280;47664;51.660;-0.100;2023-04-27T10:06:13;100987.63;;;9.98;41.98
61761;BME280;47664;51.660;-0.100;2023-04-27T10:08:49;100986.29;;;9.87;42.54
61761;BME280;47664;51.660;-0.100;2023-04-27T10:11:17;100987.54;;;10.40;42.36
61761;BME280;47664;51.660;-0.100;2023-04-27T10:13:53;100981.54;;;10.13;41.72
61761;BME280;47664;51.660;-0.100;2023-04-27T10:16:21;100976.25;;;10.73;41.25
61761;BME280;47664;51.660;-0.100;2023-04-27T10:18:53;100974.80;;;10.38;40.87
61761;BME280;47664;51.660;-0.100;2023-04-27T10:21:21;100975.71;;;11.22;41.06
61761;BME280;47664;51.660;-0.100;2023-04-27T10:23:50;100979.28;;;10.36;42.27
61761;BME280;47664;51.660;-0.100;2023-04-27T10:26:26;100987.73;;;10.47;41.66
61761;BME280;47664;51.660;-0.100;2023-04-27T10:28:56;100977.25;;;9.94;40.94
61761;BME280;47664;51.660;-0.100;2023-04-27T10:31:26;100979.29;;;10.71;41.52
61761;BME280;47664;51.660;-0.100;2023-04-27T10:34:04;100974.28;;;10.76;40.78
61761;BME280;47664;51.660;-0.100;2023-04-27T10:36:37;100971.80;;;10.80;39.08
61761;BME280;47664;51.660;-0.100;2023-04-27T10:39:14;100973.49;;;10.58;38.29
61761;BME280;47664;51.660;-0.100;2023-04-27T10:41:49;100973.67;;;10.63;38.31
61761;BME280;47664;51.660;-0.100;2023-04-27T10:44:17;100971.31;;;11.25;38.14
61761;BME280;47664;51.660;-0.100;2023-04-27T10:46:52;100958.48;;;10.58;38.62
61761;BME280;47664;51.660;-0.100;2023-04-27T10:49:20;100950.19;;;10.91;38.49
61761;BME280;47664;51.660;-0.100;2023-04-27T10:51:49;100948.31;;;9.63;39.37
61761;BME280;47664;51.660;-0.100;2023-04-27T10:54:17;100943.54;;;11.19;38.97
61761;BME280;47664;51.660;-0.100;2023-04-27T10:56:44;100944.19;;;10.82;38.58
61761;BME280;47664;51.660;-0.100;2023-04-27T10:59:11;100936.99;;;10.55;39.23
61761;BME280;47664;51.660;-0.100;2023-04-27T11:01:39;100930.20;;;10.35;39.21
61761;BME280;47664;51.660;-0.100;2023-04-27T11:04:07;100928.51;;;11.37;38.72
61761;BME280;47664;51.660;-0.100;2023-04-27T11:06:41;100925.98;;;11.13;38.59
61761;BME280;47664;51.660;-0.100;2023-04-27T11:09:08;100925.93;;;11.02;38.57
61761;BME280;47664;51.660;-0.100;2023-04-27T11:11:37;100915.69;;;11.19;37.92
61761;BME280;47664;51.660;-0.100;2023-04-27T11:14:04;100907.52;;;11.80;37.68
61761;BME280;47664;51.660;-0.100;2023-04-27T11:16:32;100901.67;;;11.53;38.43
61761;BME280;47664;51.660;-0.100;2023-04-27T11:19:03;100894.41;;;12.12;36.98
61761;BME280;47664;51.660;-0.100;2023-04-27T11:21:31;100895.13;;;11.92;37.40
61761;BME280;47664;51.660;-0.100;2023-04-27T11:24:04;100890.06;;;11.92;37.30
61761;BME280;47664;51.660;-0.100;2023-04-27T11:26:31;100884.95;;;11.64;38.12
61761;BME280;47664;51.660;-0.100;2023-04-27T11:29:00;100867.83;;;11.76;37.29
61761;BME280;47664;51.660;-0.100;2023-04-27T11:31:38;100865.47;;;12.06;37.60
61761;BME280;47664;51.660;-0.100;2023-04-27T11:34:06;100864.26;;;11.69;37.63
61761;BME280;47664;51.660;-0.100;2023-04-27T11:36:34;100853.29;;;11.86;37.67
61761;BME280;47664;51.660;-0.100;2023-04-27T11:39:01;100851.25;;;11.88;37.01
61761;BME280;47664;51.660;-0.100;2023-04-27T11:41:33;100849.47;;;12.16;36.86
61761;BME280;47664;51.660;-0.100;2023-04-27T11:44:05;100850.23;;;12.11;37.72
61761;BME280;47664;51.660;-0.100;2023-04-27T11:46:34;100842.85;;;11.98;37.08
61761;BME280;47664;51.660;-0.100;2023-04-27T11:49:02;100836.46;;;11.92;36.91
61761;BME280;47664;51.660;-0.100;2023-04-27T11:51:31;100838.52;;;12.02;36.75
61761;BME280;47664;51.660;-0.100;2023-04-27T11:54:02;100832.94;;;12.25;36.82
61761;BME280;47664;51.660;-0.100;2023-04-27T11:56:39;100828.14;;;12.27;36.74
61761;BME280;47664;51.660;-0.100;2023-04-27T11:59:17;100832.27;;;12.13;37.05
61761;BME280;47664;51.660;-0.100;2023-04-27T12:01:45;100826.78;;;11.66;37.48
61761;BME280;47664;51.660;-0.100;2023-04-27T12:04:12;100815.54;;;11.98;37.54
61761;BME280;47664;51.660;-0.100;2023-04-27T12:06:39;100817.21;;;11.44;37.42
61761;BME280;47664;51.660;-0.100;2023-04-27T12:09:06;100820.62;;;12.03;36.95
61761;BME280;47664;51.660;-0.100;2023-04-27T12:11:33;100816.76;;;11.98;37.43
61761;BME280;47664;51.660;-0.100;2023-04-27T12:14:01;100815.71;;;12.12;37.30
61761;BME280;47664;51.660;-0.100;2023-04-27T12:16:28;100810.65;;;12.02;37.72
61761;BME280;47664;51.660;-0.100;2023-04-27T12:18:56;100817.49;;;11.77;37.98
61761;BME280;47664;51.660;-0.100;2023-04-27T12:21:23;100806.42;;;11.88;38.98
61761;BME280;47664;51.660;-0.100;2023-04-27T12:23:50;100799.64;;;11.46;38.72
61761;BME280;47664;51.660;-0.100;2023-04-27T12:26:17;100798.13;;;11.40;38.88
61761;BME280;47664;51.660;-0.100;2023-04-27T12:28:44;100802.03;;;11.21;38.79
61761;BME280;47664;51.660;-0.100;2023-04-27T12:31:14;100799.07;;;12.00;38.47
61761;BME280;47664;51.660;-0.100;2023-04-27T12:33:41;100803.19;;;11.19;39.23
61761;BME280;47664;51.660;-0.100;2023-04-27T12:36:08;100804.95;;;11.71;39.83
61761;BME280;47664;51.660;-0.100;2023-04-27T12:38:36;100801.34;;;10.88;40.06
61761;BME280;47664;51.660;-0.100;2023-04-27T12:41:03;100798.64;;;11.88;39.44
61761;BME280;47664;51.660;-0.100;2023-04-27T12:43:31;100797.77;;;11.73;39.58
61761;BME280;47664;51.660;-0.100;2023-04-27T12:45:59;100794.97;;;11.86;39.57
61761;BME280;47664;51.660;-0.100;2023-04-27T12:48:26;100792.66;;;12.04;39.99
61761;BME280;47664;51.660;-0.100;2023-04-27T12:50:53;100779.18;;;11.68;40.18
61761;BME280;47664;51.660;-0.100;2023-04-27T12:53:20;100772.18;;;12.21;40.12